Time;durP1;ratioP1;P1;durP2;ratioP2;P2;SDS_P1;SDS_P2;PMS_P1;PMS_P2;Temp;Humidity;BMP_temperature;BMP_pressure;BME280_temperature;BME280_humidity;BME280_pressure;Samples;Min_cycle;Max_cycle;Signal;HPM_P1;HPM_P2
2020/12/10 00:01:46;;;;;;;27.73;16.67;;;1.60;90.70;;;;;;5032768;28;20132;-86
2020/12/10 00:04:12;;;;;;;27.58;15.65;;;1.60;90.70;;;;;;5033060;28;20532;-85
2020/12/10 00:06:38;;;;;;;25.45;15.65;;;1.60;90.70;;;;;;5032000;28;20026;-79
2020/12/10 00:09:04;;;;;;;25.08;15.70;;;1.60;90.70;;;;;;5015403;28;20389;-80
2020/12/10 00:11:29;;;;;;;29.42;16.77;;;1.50;90.60;;;;;;5031586;28;20030;-79
2020/12/10 00:13:55;;;;;;;26.65;15.73;;;1.50;90.60;;;;;;5033117;28;20029;-79
2020/12/10 00:16:20;;;;;;;28.25;15.90;;;1.50;90.70;;;;;;5015352;28;20065;-79
2020/12/10 00:18:46;;;;;;;25.27;15.40;;;1.40;90.60;;;;;;4995744;28;20030;-79
2020/12/10 00:21:11;;;;;;;27.77;16.58;;;1.50;90.70;;;;;;5042095;28;20025;-80
2020/12/10 00:23:37;;;;;;;31.45;16.30;;;1.50;90.70;;;;;;5051624;28;20029;-80
2020/12/10 00:26:03;;;;;;;29.77;17.27;;;1.40;90.60;;;;;;5032055;28;20022;-79
2020/12/10 00:28:28;;;;;;;26.83;16.48;;;1.40;90.70;;;;;;5031820;28;20032;-82
2020/12/10 00:30:54;;;;;;;28.70;15.88;;;1.40;90.70;;;;;;5033247;28;20037;-83
2020/12/10 00:33:20;;;;;;;28.60;15.63;;;1.40;90.70;;;;;;5031606;28;20730;-82
2020/12/10 00:35:45;;;;;;;31.15;16.20;;;1.40;90.70;;;;;;5022162;28;20437;-82
2020/12/10 00:38:11;;;;;;;25.73;15.43;;;1.40;90.70;;;;;;5011764;28;20459;-82
2020/12/10 00:40:36;;;;;;;28.70;16.75;;;1.40;90.70;;;;;;5028257;28;20080;-82
2020/12/10 00:43:02;;;;;;;26.00;16.15;;;1.40;90.70;;;;;;5039959;28;20052;-83
2020/12/10 00:45:28;;;;;;;27.92;16.25;;;1.40;90.70;;;;;;5034928;28;20033;-82
2020/12/10 00:47:53;;;;;;;31.63;17.17;;;1.30;90.70;;;;;;5018181;28;20087;-82
2020/12/10 00:50:19;;;;;;;26.65;15.45;;;1.30;90.60;;;;;;5034720;28;20025;-82
2020/12/10 00:52:45;;;;;;;30.92;18.40;;;1.30;90.70;;;;;;5036057;28;20112;-85
2020/12/10 00:55:11;;;;;;;29.80;16.65;;;1.30;90.70;;;;;;5002915;28;20068;-85
2020/12/10 00:57:36;;;;;;;27.77;16.20;;;1.20;90.70;;;;;;5035724;28;20025;-85
2020/12/10 01:00:06;;;;;;;34.42;18.33;;;1.20;90.70;;;;;;5035786;28;20091;-85
2020/12/10 01:02:32;;;;;;;29.98;16.83;;;1.20;90.70;;;;;;5035855;28;20025;-85
2020/12/10 01:04:57;;;;;;;27.90;16.75;;;1.20;90.70;;;;;;5019105;28;20029;-85
2020/12/10 01:07:23;;;;;;;31.33;17.20;;;1.20;90.70;;;;;;5035663;28;20025;-85
2020/12/10 01:09:49;;;;;;;30.27;17.77;;;1.10;90.70;;;;;;5019370;28;20036;-85
2020/12/10 01:12:14;;;;;;;33.38;17.90;;;1.20;90.70;;;;;;5056812;28;20091;-85
2020/12/10 01:14:40;;;;;;;31.95;18.13;;;1.20;90.70;;;;;;5039269;28;20037;-85
2020/12/10 01:17:05;;;;;;;30.92;17.15;;;1.20;90.70;;;;;;5022435;28;20062;-85
2020/12/10 01:19:31;;;;;;;34.22;18.77;;;1.20;90.70;;;;;;5022358;28;20267;-85
2020/12/10 01:21:57;;;;;;;32.70;18.42;;;1.10;90.60;;;;;;5022290;28;20036;-84
2020/12/10 01:24:22;;;;;;;29.20;16.73;;;1.10;90.60;;;;;;5038456;28;20033;-85
2020/12/10 01:26:48;;;;;;;30.50;17.35;;;1.10;90.70;;;;;;5022627;28;20144;-84
2020/12/10 01:29:14;;;;;;;30.25;17.77;;;1.10;90.60;;;;;;5038832;28;20039;-85
2020/12/10 01:31:39;;;;;;;29.80;16.33;;;1.10;90.60;;;;;;5022256;28;20029;-85
2020/12/10 01:34:05;;;;;;;29.60;16.27;;;1.00;90.70;;;;;;5022185;28;20029;-85
2020/12/10 01:36:31;;;;;;;30.13;18.17;;;1.00;90.70;;;;;;5022276;28;20033;-84
2020/12/10 01:38:58;;;;;;;30.48;16.95;;;1.00;90.70;;;;;;5038611;28;20034;-85
2020/12/10 01:41:32;;;;;;;32.58;18.08;;;1.00;90.80;;;;;;5038741;28;20113;-85
2020/12/10 01:44:07;;;;;;;28.83;16.55;;;0.90;90.80;;;;;;5038537;28;20041;-85
2020/12/10 01:46:34;;;;;;;34.88;16.67;;;0.90;90.80;;;;;;5056261;28;20425;-85
2020/12/10 01:49:02;;;;;;;29.83;16.65;;;0.90;90.80;;;;;;5055100;28;20021;-85
2020/12/10 01:51:29;;;;;;;33.42;16.73;;;0.90;90.80;;;;;;5055151;28;20432;-85
2020/12/10 01:53:55;;;;;;;32.05;17.02;;;0.90;90.80;;;;;;5038617;28;20060;-84
2020/12/10 01:56:21;;;;;;;28.30;16.65;;;0.90;90.80;;;;;;5023874;28;20060;-84
2020/12/10 01:58:47;;;;;;;33.97;17.08;;;0.90;90.80;;;;;;5038681;28;20071;-84
2020/12/10 02:01:13;;;;;;;34.70;16.58;;;0.90;90.70;;;;;;5035368;28;20117;-85
2020/12/10 02:03:39;;;;;;;28.67;15.60;;;0.90;90.70;;;;;;5048074;28;20029;-84
2020/12/10 02:06:05;;;;;;;28.08;14.55;;;0.80;90.70;;;;;;5021645;28;20025;-84
2020/12/10 02:08:30;;;;;;;30.45;15.48;;;0.80;90.70;;;;;;5021358;28;20388;-84
2020/12/10 02:10:56;;;;;;;28.08;15.05;;;0.80;90.80;;;;;;5021637;28;20162;-84
2020/12/10 02:13:22;;;;;;;26.35;14.48;;;0.80;90.80;;;;;;5021421;28;20036;-84
2020/12/10 02:15:48;;;;;;;26.98;14.45;;;0.80;90.80;;;;;;5018118;28;20483;-84
2020/12/10 02:18:14;;;;;;;24.27;13.38;;;0.70;90.80;;;;;;5035733;28;20021;-84
2020/12/10 02:20:40;;;;;;;27.25;13.80;;;0.80;90.80;;;;;;5001963;28;20026;-84
2020/12/10 02:23:07;;;;;;;24.45;13.00;;;0.80;90.80;;;;;;5042145;28;20025;-84
2020/12/10 02:25:33;;;;;;;22.83;12.65;;;0.80;90.80;;;;;;5037608;28;20029;-84
2020/12/10 02:28:10;;;;;;;24.50;12.93;;;0.80;90.80;;;;;;5017914;28;20486;-85
2020/12/10 02:30:37;;;;;;;31.23;13.07;;;0.80;90.80;;;;;;5054365;28;20048;-84
2020/12/10 02:33:05;;;;;;;25.88;13.50;;;0.80;90.70;;;;;;5019234;28;20024;-84
2020/12/10 02:35:32;;;;;;;23.40;12.75;;;0.80;90.80;;;;;;5035536;28;20026;-84
2020/12/10 02:38:00;;;;;;;24.77;12.40;;;0.80;90.80;;;;;;5051192;28;20454;-84
2020/12/10 02:40:28;;;;;;;23.83;12.57;;;0.80;90.80;;;;;;5020948;28;20055;-84
2020/12/10 02:42:56;;;;;;;27.05;12.02;;;0.70;90.70;;;;;;5028255;28;20104;-84
2020/12/10 02:45:22;;;;;;;24.25;12.35;;;0.70;90.70;;;;;;5030658;28;20021;-84
2020/12/10 02:47:47;;;;;;;24.08;12.65;;;0.70;90.70;;;;;;5013305;28;20120;-84
2020/12/10 02:50:14;;;;;;;25.70;13.55;;;0.70;90.80;;;;;;5014755;28;20100;-84
2020/12/10 02:52:40;;;;;;;19.98;11.73;;;0.70;90.80;;;;;;5014898;28;20029;-84
2020/12/10 02:55:06;;;;;;;24.88;12.73;;;0.70;90.70;;;;;;4997396;28;20145;-84
2020/12/10 02:57:31;;;;;;;26.33;13.48;;;0.60;90.70;;;;;;5013804;28;20064;-84
2020/12/10 02:59:57;;;;;;;27.92;12.32;;;0.60;90.70;;;;;;5014152;28;20037;-84
2020/12/10 03:02:22;;;;;;;28.20;12.85;;;0.60;90.80;;;;;;5013946;28;20049;-84
2020/12/10 03:04:48;;;;;;;18.20;11.02;;;0.60;90.80;;;;;;5013447;28;20022;-84
2020/12/10 03:07:15;;;;;;;23.23;11.48;;;0.60;90.80;;;;;;5013790;28;20033;-84
2020/12/10 03:09:41;;;;;;;23.05;12.70;;;0.60;90.80;;;;;;5013582;28;20025;-84
2020/12/10 03:12:07;;;;;;;23.75;11.80;;;0.60;90.80;;;;;;5014357;28;20030;-84
2020/12/10 03:14:33;;;;;;;26.80;13.80;;;0.60;90.80;;;;;;5013352;28;20029;-84
2020/12/10 03:17:00;;;;;;;24.65;12.15;;;0.60;90.80;;;;;;4997108;28;20030;-84
2020/12/10 03:19:25;;;;;;;22.60;11.38;;;0.60;90.80;;;;;;4997607;28;20072;-84
2020/12/10 03:21:51;;;;;;;21.52;11.48;;;0.60;90.80;;;;;;4994128;28;20431;-84
2020/12/10 03:24:17;;;;;;;28.98;13.15;;;0.50;91.10;;;;;;5013673;28;20479;-84
2020/12/10 03:26:42;;;;;;;22.77;11.30;;;0.60;90.80;;;;;;5012744;28;20049;-84
2020/12/10 03:29:09;;;;;;;21.33;11.82;;;0.50;90.80;;;;;;4996641;28;20125;-84
2020/12/10 03:31:36;;;;;;;19.65;10.73;;;0.50;90.80;;;;;;4993752;28;20034;-84
2020/12/10 03:34:04;;;;;;;19.63;10.95;;;0.50;90.80;;;;;;5009846;28;20118;-84
2020/12/10 03:36:45;;;;;;;25.88;12.70;;;0.50;90.80;;;;;;5012885;28;20081;-84
2020/12/10 03:39:11;;;;;;;17.60;11.20;;;0.50;90.80;;;;;;5012355;28;20121;-84
2020/12/10 03:41:36;;;;;;;17.75;9.80;;;0.60;90.80;;;;;;4996832;28;20088;-84
2020/12/10 03:44:02;;;;;;;21.98;10.80;;;0.50;90.80;;;;;;5012896;28;20048;-84
2020/12/10 03:46:27;;;;;;;23.45;11.52;;;0.50;90.90;;;;;;4996576;28;20100;-84
2020/12/10 03:48:53;;;;;;;19.33;11.07;;;0.50;90.80;;;;;;5012861;28;20444;-84
2020/12/10 03:51:18;;;;;;;21.23;10.88;;;0.50;90.80;;;;;;5012615;28;20026;-84
2020/12/10 03:53:44;;;;;;;22.52;11.10;;;0.40;90.70;;;;;;5012300;28;20038;-84
2020/12/10 03:56:10;;;;;;;21.98;11.95;;;0.40;90.80;;;;;;4993014;28;20172;-84
2020/12/10 03:58:35;;;;;;;20.02;10.70;;;0.40;91.00;;;;;;4993178;28;20053;-84
2020/12/10 04:01:01;;;;;;;27.00;13.63;;;0.40;90.80;;;;;;4995766;28;20502;-84
2020/12/10 04:03:26;;;;;;;20.40;11.75;;;0.40;90.80;;;;;;4996113;28;20026;-83
2020/12/10 04:05:52;;;;;;;22.83;10.95;;;0.30;90.80;;;;;;4996075;28;20033;-84
2020/12/10 04:08:17;;;;;;;20.38;11.02;;;0.30;91.10;;;;;;5011765;28;20435;-84
2020/12/10 04:10:44;;;;;;;18.83;11.35;;;0.20;90.90;;;;;;5011873;28;20092;-84
2020/12/10 04:13:10;;;;;;;24.08;10.80;;;0.20;90.90;;;;;;5012964;28;20495;-84
2020/12/10 04:15:35;;;;;;;19.67;10.45;;;0.30;90.90;;;;;;5012506;28;20110;-84
2020/12/10 04:18:01;;;;;;;15.73;9.13;;;0.30;90.90;;;;;;4979339;28;20039;-84
2020/12/10 04:20:28;;;;;;;19.60;11.35;;;0.30;90.90;;;;;;5015547;28;20038;-83
2020/12/10 04:22:54;;;;;;;16.63;9.60;;;0.30;90.90;;;;;;5010855;28;20061;-83
2020/12/10 04:25:19;;;;;;;18.48;10.65;;;0.30;90.90;;;;;;5012257;28;20037;-83
2020/12/10 04:27:45;;;;;;;20.75;10.23;;;0.30;90.90;;;;;;5012531;28;20037;-84
2020/12/10 04:30:10;;;;;;;18.65;10.20;;;0.30;91.10;;;;;;5012382;28;20034;-83
2020/12/10 04:32:36;;;;;;;21.17;11.35;;;0.20;90.80;;;;;;4996478;28;20088;-84
2020/12/10 04:35:02;;;;;;;24.45;10.90;;;0.20;90.80;;;;;;4996428;28;20030;-83
2020/12/10 04:37:28;;;;;;;24.17;11.05;;;0.20;90.80;;;;;;4996201;28;20030;-83
2020/12/10 04:39:53;;;;;;;21.05;10.35;;;0.20;90.80;;;;;;5012486;28;20026;-84
2020/12/10 04:42:19;;;;;;;18.02;10.60;;;0.20;90.80;;;;;;5012141;28;20560;-83
2020/12/10 04:44:46;;;;;;;19.00;9.82;;;0.20;90.80;;;;;;5000213;28;20061;-84
2020/12/10 04:47:13;;;;;;;16.95;10.02;;;0.20;90.90;;;;;;5052090;28;20162;-84
2020/12/10 04:49:39;;;;;;;21.73;11.15;;;0.20;90.90;;;;;;5039546;28;20025;-83
2020/12/10 04:52:07;;;;;;;21.73;11.50;;;0.20;90.90;;;;;;5022933;28;20037;-83
2020/12/10 04:54:34;;;;;;;20.17;11.57;;;0.10;90.80;;;;;;5057099;28;20025;-83
2020/12/10 04:57:02;;;;;;;19.98;10.93;;;0.20;90.90;;;;;;5038984;28;20033;-83
2020/12/10 04:59:28;;;;;;;21.33;10.93;;;0.20;90.90;;;;;;5041845;28;20040;-84
2020/12/10 05:01:55;;;;;;;22.80;12.07;;;0.20;90.90;;;;;;5031928;28;20029;-83
2020/12/10 05:04:23;;;;;;;19.83;11.35;;;0.20;90.90;;;;;;5019179;28;20033;-84
2020/12/10 05:06:50;;;;;;;21.58;11.68;;;0.20;90.90;;;;;;5026312;28;20037;-83
2020/12/10 05:09:17;;;;;;;23.80;11.75;;;0.10;90.80;;;;;;5035913;28;20490;-84
2020/12/10 05:11:42;;;;;;;22.48;12.48;;;0.10;90.90;;;;;;5043556;28;20029;-81
2020/12/10 05:14:08;;;;;;;25.20;12.35;;;0.10;90.90;;;;;;5038493;28;20035;-81
2020/12/10 05:16:34;;;;;;;22.00;12.32;;;0.10;90.90;;;;;;5028461;28;20032;-81
2020/12/10 05:19:19;;;;;;;27.85;12.43;;;0.10;90.90;;;;;;5034338;28;20026;-81
2020/12/10 05:22:06;;;;;;;22.52;12.10;;;0.10;90.90;;;;;;5018239;28;20398;-81
2020/12/10 05:24:32;;;;;;;23.50;12.88;;;0.10;90.90;;;;;;5018141;28;20040;-81
2020/12/10 05:27:22;;;;;;;24.58;12.40;;;0.10;90.90;;;;;;5052310;28;20025;-81
2020/12/10 05:29:49;;;;;;;21.38;12.55;;;0.10;90.90;;;;;;5055467;28;20044;-80
2020/12/10 05:32:35;;;;;;;23.60;13.05;;;0.10;90.90;;;;;;5011447;28;20033;-81
2020/12/10 05:35:13;;;;;;;27.15;13.30;;;0.10;90.90;;;;;;5017908;28;20033;-81
2020/12/10 05:37:38;;;;;;;29.08;13.93;;;0.10;90.90;;;;;;5048434;28;20040;-81
2020/12/10 05:40:04;;;;;;;24.25;11.75;;;0.00;90.90;;;;;;5034421;28;20025;-81
2020/12/10 05:42:39;;;;;;;28.13;14.70;;;0.10;90.90;;;;;;5017780;28;20390;-81
2020/12/10 05:45:15;;;;;;;33.72;16.63;;;0.00;91.00;;;;;;5052647;28;20849;-81
2020/12/10 05:47:44;;;;;;;28.17;14.07;;;0.00;91.00;;;;;;5034358;28;20376;-81
2020/12/10 05:50:12;;;;;;;31.45;14.43;;;0.00;91.00;;;;;;5052593;28;20057;-81
2020/12/10 05:52:52;;;;;;;26.73;14.88;;;0.00;91.00;;;;;;5037868;28;20036;-81
2020/12/10 05:55:18;;;;;;;30.70;15.13;;;0.00;91.00;;;;;;5037448;28;20025;-81
2020/12/10 05:57:44;;;;;;;29.15;15.82;;;0.00;91.20;;;;;;5037419;28;20040;-81
2020/12/10 06:00:09;;;;;;;31.20;15.60;;;0.00;91.00;;;;;;5020784;28;20151;-81
2020/12/10 06:02:35;;;;;;;30.35;16.60;;;0.00;91.00;;;;;;5034580;28;20044;-81
2020/12/10 06:05:02;;;;;;;33.15;16.20;;;0.00;91.00;;;;;;5037055;28;20382;-81
2020/12/10 06:07:29;;;;;;;28.35;15.43;;;-0.10;91.00;;;;;;5037870;28;20036;-81
2020/12/10 06:09:56;;;;;;;31.30;14.77;;;-0.10;91.00;;;;;;5047336;28;20029;-81
2020/12/10 06:12:25;;;;;;;30.52;16.08;;;-0.10;91.00;;;;;;5044044;28;20024;-80
2020/12/10 06:14:56;;;;;;;29.20;15.07;;;-0.10;91.00;;;;;;5036811;28;20021;-80
2020/12/10 06:17:23;;;;;;;33.40;15.75;;;-0.10;91.00;;;;;;5037664;28;20388;-80
2020/12/10 06:19:49;;;;;;;28.23;15.38;;;-0.10;91.00;;;;;;5054492;28;20051;-80
2020/12/10 06:22:29;;;;;;;40.17;16.42;;;-0.10;91.00;;;;;;5020275;28;20029;-79
2020/12/10 06:24:59;;;;;;;28.85;15.52;;;-0.10;91.00;;;;;;5020893;28;20083;-80
2020/12/10 06:27:28;;;;;;;32.17;16.80;;;-0.10;90.90;;;;;;5033567;28;20120;-80
2020/12/10 06:30:10;;;;;;;;;;;-0.10;91.00;;;;;;5033979;28;20120;-80
2020/12/10 06:32:46;;;;;;;33.80;16.90;;;-0.20;91.00;;;;;;5035976;28;19912;-80
2020/12/10 06:35:38;;;;;;;31.80;16.33;;;-0.10;91.10;;;;;;5018288;28;20025;-79
2020/12/10 06:38:06;;;;;;;32.45;16.40;;;-0.10;91.10;;;;;;5030694;28;20047;-79
2020/12/10 06:40:31;;;;;;;30.50;14.57;;;-0.10;91.10;;;;;;5034418;28;20017;-79
2020/12/10 06:42:57;;;;;;;29.30;14.98;;;-0.10;91.10;;;;;;5044464;28;20048;-79
2020/12/10 06:45:24;;;;;;;27.00;15.63;;;-0.10;91.00;;;;;;5036312;28;20386;-79
2020/12/10 06:47:49;;;;;;;36.25;17.38;;;-0.10;91.00;;;;;;5036097;28;20052;-79
2020/12/10 06:50:30;;;;;;;25.63;14.65;;;-0.10;91.00;;;;;;5036534;28;20037;-79
2020/12/10 06:53:16;;;;;;;;;;;-0.10;91.10;;;;;;5035907;28;20033;-79
2020/12/10 06:58:44;;;;;;;33.22;17.48;;;-0.10;91.10;;;;;;5054104;28;20040;-79
2020/12/10 07:01:37;;;;;;;30.13;15.88;;;0.00;91.10;;;;;;5052866;28;20549;-79
2020/12/10 07:07:12;;;;;;;32.58;16.15;;;-0.10;91.00;;;;;;5054146;28;20420;-79
2020/12/10 07:10:00;;;;;;;30.88;16.70;;;-0.10;91.10;;;;;;5052387;28;20477;-80
2020/12/10 07:12:32;;;;;;;29.17;15.55;;;0.00;91.10;;;;;;5054087;28;20029;-80
2020/12/10 07:15:23;;;;;;;32.22;16.75;;;0.00;91.00;;;;;;5048546;28;20024;-80
2020/12/10 07:17:52;;;;;;;28.10;15.77;;;0.00;91.10;;;;;;5035770;28;20036;-80
2020/12/10 07:20:20;;;;;;;28.88;16.02;;;0.00;91.10;;;;;;5036391;28;20440;-80
2020/12/10 07:22:45;;;;;;;34.05;16.17;;;-0.10;91.00;;;;;;5035803;28;20048;-80
2020/12/10 07:25:11;;;;;;;30.42;16.23;;;0.00;91.00;;;;;;5052727;28;20029;-81
2020/12/10 07:27:40;;;;;;;33.58;17.52;;;0.00;91.10;;;;;;5036091;28;20127;-81
2020/12/10 07:30:13;;;;;;;32.22;16.90;;;0.00;91.30;;;;;;5024611;28;20124;-81
2020/12/10 07:32:52;;;;;;;32.25;16.60;;;0.00;91.00;;;;;;5017947;28;20037;-81
2020/12/10 07:35:36;;;;;;;34.30;17.23;;;-0.10;91.00;;;;;;5033607;28;20033;-81
2020/12/10 07:38:15;;;;;;;29.52;16.10;;;-0.10;91.30;;;;;;5032202;28;20375;-80
2020/12/10 07:40:41;;;;;;;36.63;17.92;;;-0.10;91.10;;;;;;5033748;28;20025;-81
2020/12/10 07:43:09;;;;;;;34.47;18.00;;;-0.10;91.10;;;;;;5015856;28;20095;-81
2020/12/10 07:45:36;;;;;;;36.92;17.73;;;-0.10;91.10;;;;;;5015929;28;20030;-81
2020/12/10 07:48:05;;;;;;;35.92;18.83;;;-0.10;91.00;;;;;;5033471;28;20030;-81
2020/12/10 07:50:33;;;;;;;35.70;18.80;;;-0.10;91.00;;;;;;5015867;28;20014;-81
2020/12/10 07:53:08;;;;;;;33.97;18.10;;;0.00;91.00;;;;;;5015947;28;20030;-81
2020/12/10 07:55:36;;;;;;;33.67;17.38;;;0.00;91.00;;;;;;5000399;28;20276;-81
2020/12/10 07:58:10;;;;;;;33.22;16.60;;;0.00;91.10;;;;;;5017402;28;20390;-81
2020/12/10 08:00:39;;;;;;;34.17;18.98;;;0.00;91.00;;;;;;5035545;28;20123;-81
2020/12/10 08:03:24;;;;;;;34.35;17.83;;;0.00;91.00;;;;;;5053155;28;20423;-81
2020/12/10 08:06:00;;;;;;;33.00;17.17;;;0.10;91.00;;;;;;5035505;28;20124;-80
2020/12/10 08:08:38;;;;;;;33.08;17.90;;;0.10;91.00;;;;;;5053308;28;20025;-80
2020/12/10 08:11:16;;;;;;;32.05;16.65;;;0.10;91.00;;;;;;5053331;28;20464;-81
2020/12/10 08:13:58;;;;;;;40.75;18.75;;;0.10;91.00;;;;;;5035286;28;20385;-81
2020/12/10 08:16:34;;;;;;;38.17;18.38;;;0.10;91.00;;;;;;5034949;28;20040;-81
2020/12/10 08:19:19;;;;;;;40.42;21.17;;;0.20;90.90;;;;;;5036453;28;20064;-81
2020/12/10 08:21:46;;;;;;;38.03;20.02;;;0.20;90.90;;;;;;5035161;28;20017;-81
2020/12/10 08:24:13;;;;;;;34.25;19.40;;;0.20;90.90;;;;;;5037351;28;20029;-81
2020/12/10 08:26:41;;;;;;;40.13;20.40;;;0.20;91.20;;;;;;5019910;28;20025;-81
2020/12/10 08:29:07;;;;;;;38.05;19.65;;;0.30;90.90;;;;;;5038713;28;20500;-81
2020/12/10 08:31:34;;;;;;;38.63;20.17;;;0.30;90.90;;;;;;5035414;28;20477;-81
2020/12/10 08:34:01;;;;;;;37.47;20.30;;;0.30;90.90;;;;;;5074572;28;20556;-81
2020/12/10 08:36:33;;;;;;;36.67;18.70;;;0.30;90.80;;;;;;5058841;28;20503;-81
2020/12/10 08:39:03;;;;;;;39.78;20.35;;;0.40;90.90;;;;;;5058743;28;20029;-80
2020/12/10 08:41:36;;;;;;;39.92;21.20;;;0.50;90.80;;;;;;5041074;28;20024;-81
2020/12/10 08:44:07;;;;;;;36.05;19.33;;;0.60;90.80;;;;;;5055012;28;20072;-81
2020/12/10 08:46:37;;;;;;;37.30;19.35;;;0.60;90.80;;;;;;5056880;28;20059;-81
2020/12/10 08:49:19;;;;;;;48.30;20.67;;;0.60;90.80;;;;;;5055516;28;20029;-81
2020/12/10 08:51:50;;;;;;;38.70;20.20;;;0.70;90.80;;;;;;5055564;28;20072;-81
2020/12/10 08:54:16;;;;;;;38.70;19.92;;;0.70;90.70;;;;;;5038772;28;20033;-81
2020/12/10 08:56:42;;;;;;;34.88;18.40;;;0.70;90.80;;;;;;5022349;28;20029;-81
2020/12/10 08:59:08;;;;;;;39.03;18.05;;;0.70;90.80;;;;;;5040347;28;20072;-81
2020/12/10 09:01:35;;;;;;;35.67;18.20;;;0.80;90.80;;;;;;5022230;28;20055;-81
2020/12/10 09:04:05;;;;;;;35.90;18.38;;;0.80;90.80;;;;;;5058889;28;20032;-80
2020/12/10 09:06:35;;;;;;;34.50;18.50;;;0.80;90.80;;;;;;5041996;28;20112;-80
2020/12/10 09:09:02;;;;;;;38.83;20.33;;;0.90;90.80;;;;;;5055989;28;20021;-79
2020/12/10 09:11:28;;;;;;;37.65;19.00;;;0.90;90.80;;;;;;5036237;28;20025;-79
2020/12/10 09:13:54;;;;;;;38.17;19.50;;;1.00;90.80;;;;;;5021472;28;20029;-80
2020/12/10 09:16:19;;;;;;;37.13;19.27;;;1.00;90.80;;;;;;5038321;28;20090;-80
2020/12/10 09:18:46;;;;;;;38.33;19.48;;;1.00;90.70;;;;;;5039049;28;20040;-80
2020/12/10 09:21:12;;;;;;;42.65;20.73;;;1.00;90.70;;;;;;5038529;28;20485;-80
2020/12/10 09:23:43;;;;;;;46.55;21.75;;;1.10;90.80;;;;;;5054525;28;20028;-80
2020/12/10 09:26:13;;;;;;;39.22;20.77;;;1.10;90.80;;;;;;5022605;28;20025;-81
2020/12/10 09:28:39;;;;;;;37.55;20.13;;;1.10;90.80;;;;;;5038232;28;20382;-81
2020/12/10 09:31:07;;;;;;;37.88;18.92;;;1.10;90.80;;;;;;5037635;28;20059;-82
2020/12/10 09:33:33;;;;;;;36.72;20.13;;;1.10;90.80;;;;;;5038115;28;20385;-81
2020/12/10 09:35:59;;;;;;;37.30;20.77;;;1.20;90.80;;;;;;5038085;28;20040;-82
2020/12/10 09:38:25;;;;;;;39.22;21.02;;;1.20;90.80;;;;;;5021500;28;20498;-82
2020/12/10 09:40:51;;;;;;;39.28;20.80;;;1.20;90.80;;;;;;5037950;28;20112;-82
2020/12/10 09:43:16;;;;;;;38.33;21.48;;;1.20;90.80;;;;;;5023308;28;20020;-81
2020/12/10 09:45:49;;;;;;;35.15;19.85;;;1.20;90.80;;;;;;5014983;28;20046;-82
2020/12/10 09:48:14;;;;;;;40.08;20.83;;;1.30;90.80;;;;;;5015534;28;20036;-82
2020/12/10 09:50:40;;;;;;;40.38;21.63;;;1.30;90.80;;;;;;4995144;28;20027;-81
2020/12/10 09:58:18;;;;;;;44.08;21.60;;;1.40;90.70;;;;;;5014972;28;20026;-80
2020/12/10 10:00:49;;;;;;;40.22;21.15;;;1.40;90.70;;;;;;5014640;28;20104;-81
2020/12/10 10:03:20;;;;;;;40.17;22.27;;;1.40;90.70;;;;;;5030893;28;20142;-82
2020/12/10 10:05:47;;;;;;;39.22;21.83;;;1.40;90.70;;;;;;5014687;28;20034;-82
2020/12/10 10:08:12;;;;;;;39.95;21.23;;;1.50;90.70;;;;;;4996564;28;20052;-81
2020/12/10 10:10:39;;;;;;;42.83;21.80;;;1.50;90.70;;;;;;5015309;28;20026;-81
2020/12/10 10:13:06;;;;;;;36.25;19.60;;;1.50;90.60;;;;;;4998027;28;20541;-81
2020/12/10 10:15:32;;;;;;;40.80;22.08;;;1.50;90.60;;;;;;5013599;28;20467;-81
2020/12/10 10:17:58;;;;;;;42.88;22.58;;;1.60;90.60;;;;;;4995450;28;21779;-81
2020/12/10 10:20:23;;;;;;;39.97;21.75;;;1.60;90.60;;;;;;5012213;28;20042;-81
2020/12/10 10:22:49;;;;;;;42.13;22.40;;;1.60;90.60;;;;;;5014291;28;20391;-81
2020/12/10 10:25:15;;;;;;;48.17;24.90;;;1.60;90.60;;;;;;4988298;28;20030;-81
2020/12/10 10:27:40;;;;;;;45.40;23.35;;;1.70;90.60;;;;;;4991983;28;20041;-80
2020/12/10 10:30:07;;;;;;;45.30;23.85;;;1.70;90.60;;;;;;4982486;28;20081;-80
2020/12/10 10:32:34;;;;;;;44.72;22.50;;;1.70;90.60;;;;;;5008053;28;20084;-80
2020/12/10 10:35:00;;;;;;;44.83;24.23;;;1.70;90.60;;;;;;5026931;28;20548;-80
2020/12/10 10:37:33;;;;;;;43.10;23.88;;;1.70;90.50;;;;;;5005502;28;20681;-80
2020/12/10 10:39:59;;;;;;;46.60;24.70;;;1.80;90.50;;;;;;4996115;28;20103;-80
2020/12/10 10:42:46;;;;;;;46.40;24.60;;;1.80;90.50;;;;;;5009674;28;20026;-79
2020/12/10 10:45:12;;;;;;;45.90;23.17;;;1.80;90.50;;;;;;5008519;28;20569;-81
2020/12/10 10:47:38;;;;;;;40.53;23.30;;;1.80;90.50;;;;;;4972875;28;20084;-82
2020/12/10 10:50:04;;;;;;;49.50;25.67;;;1.80;90.50;;;;;;4993940;28;20042;-82
2020/12/10 10:52:32;;;;;;;39.70;21.40;;;1.80;90.50;;;;;;5008653;28;20510;-82
2020/12/10 10:55:29;;;;;;;38.47;21.27;;;1.80;90.50;;;;;;5024205;28;20070;-82
2020/12/10 10:58:14;;;;;;;42.40;22.90;;;1.80;90.50;;;;;;5029951;28;20022;-82
2020/12/10 11:00:40;;;;;;;43.63;23.52;;;1.80;90.50;;;;;;4992690;28;20046;-80
2020/12/10 11:03:05;;;;;;;43.30;23.35;;;1.80;90.50;;;;;;4988229;28;20038;-80
2020/12/10 11:05:31;;;;;;;40.03;22.35;;;1.90;90.60;;;;;;4992357;28;20049;-81
2020/12/10 11:08:01;;;;;;;41.70;22.80;;;1.90;90.60;;;;;;5006509;28;20160;-80
2020/12/10 11:10:27;;;;;;;46.63;24.38;;;1.90;90.50;;;;;;5013230;28;20034;-80
2020/12/10 11:12:52;;;;;;;42.90;23.58;;;1.90;90.50;;;;;;4996352;28;20390;-80
2020/12/10 11:15:18;;;;;;;39.15;22.15;;;1.90;90.80;;;;;;5012852;28;20040;-80
2020/12/10 11:17:44;;;;;;;41.60;23.25;;;1.90;90.60;;;;;;4995266;28;20039;-82
2020/12/10 11:20:12;;;;;;;40.92;22.50;;;1.90;90.50;;;;;;5013121;28;20447;-82
2020/12/10 11:22:38;;;;;;;40.95;23.73;;;2.00;90.60;;;;;;5009719;28;20026;-81
2020/12/10 11:25:05;;;;;;;44.22;23.08;;;2.00;90.50;;;;;;5007466;28;20069;-82
2020/12/10 11:27:31;;;;;;;40.40;20.77;;;2.00;90.50;;;;;;5003720;28;20106;-82
2020/12/10 11:29:58;;;;;;;42.40;22.70;;;2.00;90.50;;;;;;5009697;28;20057;-82
2020/12/10 11:32:24;;;;;;;40.55;22.48;;;2.10;90.50;;;;;;5025260;28;20037;-82
2020/12/10 11:34:50;;;;;;;45.53;24.60;;;2.10;90.50;;;;;;5009781;28;20025;-83
2020/12/10 11:37:20;;;;;;;43.67;23.25;;;2.10;90.50;;;;;;5011077;28;20033;-83
2020/12/10 11:39:49;;;;;;;44.20;23.55;;;2.10;90.50;;;;;;5022370;28;20522;-83
2020/12/10 11:42:15;;;;;;;48.90;24.60;;;2.10;90.50;;;;;;5003271;28;20106;-83
2020/12/10 11:44:42;;;;;;;44.95;24.27;;;2.10;90.50;;;;;;5026178;28;20136;-84
2020/12/10 11:47:26;;;;;;;47.33;25.33;;;2.10;90.50;;;;;;5019276;28;20071;-83
2020/12/10 11:49:52;;;;;;;40.72;22.90;;;2.10;90.50;;;;;;5026769;28;20123;-83
2020/12/10 11:52:18;;;;;;;50.70;24.65;;;2.10;90.50;;;;;;5013575;28;20068;-84
2020/12/10 11:54:43;;;;;;;40.45;22.70;;;2.10;90.50;;;;;;5046865;28;20537;-84
2020/12/10 11:57:09;;;;;;;43.08;23.35;;;2.20;90.60;;;;;;5016200;28;20393;-84
2020/12/10 11:59:35;;;;;;;43.20;24.17;;;2.20;90.50;;;;;;5031963;28;20072;-82
2020/12/10 12:02:00;;;;;;;47.97;24.58;;;2.20;90.50;;;;;;5029099;28;20065;-86
2020/12/10 12:04:29;;;;;;;43.72;23.65;;;2.20;90.50;;;;;;5029762;28;20480;-86
2020/12/10 12:07:18;;;;;;;42.07;23.77;;;2.20;90.50;;;;;;5043743;28;20026;-84
2020/12/10 12:09:45;;;;;;;41.67;23.27;;;2.20;90.50;;;;;;5019381;28;20333;-86
2020/12/10 12:12:36;;;;;;;42.53;23.35;;;2.20;90.50;;;;;;5016483;28;20545;-86
2020/12/10 12:17:36;;;;;;;39.80;21.98;;;2.30;90.20;;;;;;5109949;27;20701;-83
2020/12/10 12:20:19;;;;;;;42.58;22.83;;;2.20;90.30;;;;;;5069262;28;20075;-84
2020/12/10 12:22:44;;;;;;;43.40;23.60;;;2.30;90.30;;;;;;5089099;28;20066;-81
2020/12/10 12:25:10;;;;;;;37.45;21.13;;;2.30;90.40;;;;;;5114310;28;20033;-80
2020/12/10 12:27:57;;;;;;;42.00;23.08;;;2.40;90.50;;;;;;5067333;28;20021;-80
2020/12/10 12:30:22;;;;;;;40.72;21.80;;;2.50;90.50;;;;;;5082766;28;20016;-81
2020/12/10 12:32:48;;;;;;;43.33;23.40;;;2.60;90.30;;;;;;5100282;28;20097;-77
2020/12/10 12:35:14;;;;;;;49.20;23.98;;;2.70;90.30;;;;;;5070728;28;20032;-76
2020/12/10 12:37:40;;;;;;;41.42;22.63;;;2.80;90.20;;;;;;5068330;28;20452;-77
2020/12/10 12:40:06;;;;;;;38.40;21.63;;;2.80;90.20;;;;;;5085524;28;20503;-77
2020/12/10 12:42:52;;;;;;;43.70;22.52;;;2.90;90.10;;;;;;5083382;28;20021;-77
2020/12/10 12:45:17;;;;;;;43.50;22.25;;;2.90;90.10;;;;;;5071264;28;20058;-77
2020/12/10 12:47:43;;;;;;;48.33;23.08;;;2.90;90.00;;;;;;5087588;28;20052;-76
2020/12/10 12:50:09;;;;;;;47.20;25.67;;;3.00;90.00;;;;;;5087992;28;20060;-76
2020/12/10 12:52:36;;;;;;;38.30;22.60;;;3.00;89.80;;;;;;5088479;28;20024;-78
2020/12/10 12:55:03;;;;;;;40.03;21.83;;;3.10;89.80;;;;;;5065519;28;20476;-77
2020/12/10 12:57:30;;;;;;;38.83;21.60;;;3.10;89.70;;;;;;5077909;28;20082;-77